createdAt,value
2023-05-18T00:02:31.418Z,100.00
2023-05-18T00:05:34.639Z,100.00
2023-05-18T00:08:38.906Z,100.00
2023-05-18T00:11:41.137Z,100.00
2023-05-18T00:14:42.898Z,100.00
2023-05-18T00:17:45.668Z,100.00
2023-05-18T00:20:48.753Z,100.00
2023-05-18T00:23:52.306Z,100.00
2023-05-18T00:26:54.210Z,100.00
2023-05-18T00:29:56.061Z,100.00
2023-05-18T00:32:57.864Z,100.00
2023-05-18T00:35:59.723Z,100.00
2023-05-18T00:39:04.535Z,100.00
2023-05-18T00:42:07.470Z,100.00
2023-05-18T00:45:10.080Z,100.00
2023-05-18T00:48:12.059Z,100.00
2023-05-18T00:51:14.484Z,100.00
2023-05-18T00:54:17.755Z,100.00
2023-05-18T00:57:20.213Z,100.00
2023-05-18T01:00:23.165Z,100.00
2023-05-18T01:03:26.271Z,100.00
2023-05-18T01:06:32.784Z,100.00
2023-05-18T01:09:36.222Z,100.00
2023-05-18T01:12:43.722Z,100.00
2023-05-18T01:15:54.431Z,100.00
2023-05-18T01:19:05.592Z,100.00
2023-05-18T01:22:13.964Z,100.00
2023-05-18T01:25:23.395Z,100.00
2023-05-18T01:28:30.377Z,100.00
2023-05-18T01:31:35.238Z,100.00
2023-05-18T01:34:38.248Z,100.00
2023-05-18T01:37:40.217Z,100.00
2023-05-18T01:40:53.044Z,100.00
2023-05-18T01:44:04.716Z,100.00
2023-05-18T01:47:11.185Z,100.00
2023-05-18T01:50:16.934Z,100.00
2023-05-18T01:53:25.063Z,100.00
2023-05-18T01:56:27.631Z,100.00
2023-05-18T01:59:31.061Z,100.00
2023-05-18T02:02:33.401Z,100.00
2023-05-18T02:05:35.582Z,100.00
2023-05-18T02:08:38.847Z,100.00
2023-05-18T02:11:41.374Z,100.00
2023-05-18T02:14:44.400Z,100.00
2023-05-18T02:17:46.165Z,100.00
2023-05-18T02:20:49.146Z,100.00
2023-05-18T02:23:50.907Z,100.00
2023-05-18T02:26:53.092Z,100.00
2023-05-18T02:29:56.907Z,100.00
2023-05-18T02:32:59.258Z,100.00
2023-05-18T02:36:02.921Z,100.00
2023-05-18T02:39:04.926Z,100.00
2023-05-18T02:42:07.554Z,100.00
2023-05-18T02:45:11.278Z,100.00
2023-05-18T02:48:15.025Z,100.00
2023-05-18T02:51:17.320Z,100.00
2023-05-18T02:54:19.847Z,100.00
2023-05-18T02:57:22.372Z,100.00
2023-05-18T03:00:36.401Z,100.00
2023-05-18T03:03:39.109Z,100.00
2023-05-18T03:06:46.246Z,100.00
2023-05-18T03:09:48.593Z,100.00
2023-05-18T03:12:52.346Z,100.00
2023-05-18T03:15:56.709Z,100.00
2023-05-18T03:18:59.119Z,100.00
2023-05-18T03:22:06.335Z,100.00
2023-05-18T03:25:09.230Z,100.00
2023-05-18T03:28:11.428Z,100.00
2023-05-18T03:31:18.252Z,100.00
2023-05-18T03:34:21.277Z,100.00
2023-05-18T03:37:23.294Z,100.00
2023-05-18T03:40:26.061Z,100.00
2023-05-18T03:43:29.575Z,100.00
2023-05-18T03:46:33.828Z,100.00
2023-05-18T03:49:36.413Z,100.00
2023-05-18T03:52:39.507Z,100.00
2023-05-18T03:55:43.187Z,100.00
2023-05-18T03:58:45.641Z,100.00
2023-05-18T04:01:53.736Z,100.00
2023-05-18T04:04:58.020Z,100.00
2023-05-18T04:08:02.270Z,100.00
2023-05-18T04:11:06.911Z,100.00
2023-05-18T04:14:09.264Z,100.00
2023-05-18T04:17:12.604Z,100.00
2023-05-18T04:20:14.865Z,100.00
2023-05-18T04:23:17.420Z,100.00
2023-05-18T04:26:20.304Z,100.00
2023-05-18T04:29:22.471Z,100.00
2023-05-18T04:32:28.282Z,100.00
2023-05-18T04:35:31.984Z,100.00
2023-05-18T04:38:34.655Z,100.00
2023-05-18T04:41:38.352Z,100.00
2023-05-18T04:44:40.241Z,100.00
2023-05-18T04:47:51.354Z,100.00
2023-05-18T04:50:56.143Z,100.00
2023-05-18T04:53:57.918Z,100.00
2023-05-18T04:57:03.491Z,100.00
2023-05-18T05:00:09.821Z,100.00
2023-05-18T05:03:13.085Z,100.00
2023-05-18T05:06:15.944Z,100.00
2023-05-18T05:09:18.002Z,100.00
2023-05-18T05:12:19.882Z,100.00
2023-05-18T05:15:21.962Z,100.00
2023-05-18T05:18:26.927Z,100.00
2023-05-18T05:21:29.023Z,100.00
2023-05-18T05:24:30.977Z,100.00
2023-05-18T05:27:32.768Z,100.00
2023-05-18T05:30:34.477Z,100.00
2023-05-18T05:33:37.796Z,100.00
2023-05-18T05:36:40.183Z,100.00
2023-05-18T05:39:42.276Z,100.00
2023-05-18T05:42:44.737Z,100.00
2023-05-18T05:45:47.743Z,100.00
2023-05-18T05:48:51.092Z,100.00
2023-05-18T05:51:53.108Z,100.00
2023-05-18T05:54:56.305Z,100.00
2023-05-18T05:57:58.363Z,100.00
2023-05-18T06:01:00.286Z,100.00
2023-05-18T06:04:06.468Z,100.00
2023-05-18T06:07:08.299Z,100.00
2023-05-18T06:10:11.460Z,100.00
2023-05-18T06:13:19.661Z,100.00
2023-05-18T06:16:27.395Z,100.00
2023-05-18T06:19:31.118Z,100.00
2023-05-18T06:22:33.271Z,100.00
2023-05-18T06:25:53.319Z,100.00
2023-05-18T06:29:10.127Z,100.00
2023-05-18T06:32:26.873Z,100.00
2023-05-18T06:35:31.568Z,100.00
2023-05-18T06:38:33.613Z,100.00
2023-05-18T06:41:35.742Z,100.00
2023-05-18T06:44:38.104Z,100.00
2023-05-18T06:47:46.261Z,100.00
2023-05-18T06:50:49.634Z,100.00
2023-05-18T06:53:51.590Z,100.00
2023-05-18T06:56:53.779Z,100.00
2023-05-18T06:59:56.191Z,100.00
2023-05-18T07:02:58.084Z,100.00
2023-05-18T07:06:01.980Z,100.00
2023-05-18T07:09:04.497Z,100.00
2023-05-18T07:12:07.323Z,100.00
2023-05-18T07:15:11.481Z,100.00
2023-05-18T07:18:13.203Z,100.00
2023-05-18T07:21:16.627Z,100.00
2023-05-18T07:24:18.751Z,100.00
2023-05-18T07:27:20.747Z,100.00
2023-05-18T07:30:23.040Z,100.00
2023-05-18T07:33:24.994Z,100.00
2023-05-18T07:36:28.688Z,100.00
2023-05-18T07:39:30.605Z,100.00
2023-05-18T07:42:33.936Z,100.00
2023-05-18T07:45:35.802Z,100.00
2023-05-18T07:48:40.386Z,100.00
2023-05-18T07:51:44.551Z,100.00
2023-05-18T07:54:46.562Z,100.00
2023-05-18T07:57:49.549Z,100.00
2023-05-18T08:00:51.653Z,100.00
2023-05-18T08:03:53.954Z,100.00
2023-05-18T08:07:00.491Z,100.00
2023-05-18T08:10:02.491Z,100.00
2023-05-18T08:13:04.354Z,100.00
2023-05-18T08:16:11.788Z,100.00
2023-05-18T08:19:14.791Z,100.00
2023-05-18T08:22:18.161Z,100.00
2023-05-18T08:25:20.801Z,100.00
2023-05-18T08:28:23.400Z,100.00
2023-05-18T08:31:26.312Z,100.00
2023-05-18T08:34:30.198Z,100.00
2023-05-18T08:37:33.382Z,100.00
2023-05-18T08:40:43.665Z,100.00
2023-05-18T08:43:48.925Z,100.00
2023-05-18T08:46:51.470Z,100.00
2023-05-18T08:49:56.433Z,100.00
2023-05-18T08:53:01.417Z,100.00
2023-05-18T08:56:03.768Z,100.00
2023-05-18T08:59:08.960Z,100.00
2023-05-18T09:02:11.503Z,100.00
2023-05-18T09:05:15.330Z,100.00
2023-05-18T09:08:18.943Z,100.00
2023-05-18T09:11:22.143Z,100.00
2023-05-18T09:14:26.077Z,100.00
2023-05-18T09:17:28.227Z,100.00
2023-05-18T09:20:30.473Z,100.00
2023-05-18T09:23:34.083Z,100.00
2023-05-18T09:26:56.055Z,100.00
2023-05-18T09:29:59.127Z,100.00
2023-05-18T09:33:02.679Z,100.00
2023-05-18T09:36:05.065Z,100.00
2023-05-18T09:39:11.753Z,100.00
2023-05-18T09:42:13.543Z,100.00
2023-05-18T09:45:17.666Z,100.00
2023-05-18T09:48:19.512Z,100.00
2023-05-18T09:51:25.011Z,100.00
2023-05-18T09:54:28.666Z,100.00
2023-05-18T09:57:30.645Z,100.00
2023-05-18T10:00:32.861Z,100.00
2023-05-18T10:03:40.369Z,100.00
2023-05-18T10:06:49.432Z,100.00
2023-05-18T10:10:01.630Z,100.00
2023-05-18T10:13:04.484Z,100.00
2023-05-18T10:16:08.349Z,100.00
2023-05-18T10:19:12.781Z,100.00
2023-05-18T10:22:16.137Z,100.00
2023-05-18T10:25:22.585Z,100.00
2023-05-18T10:28:28.821Z,100.00
2023-05-18T10:31:32.860Z,100.00
2023-05-18T10:34:36.278Z,100.00
2023-05-18T10:37:42.262Z,100.00
2023-05-18T10:40:47.946Z,100.00
2023-05-18T10:43:50.132Z,100.00
2023-05-18T10:46:53.275Z,100.00
2023-05-18T10:49:55.393Z,100.00
2023-05-18T10:52:59.109Z,100.00
2023-05-18T10:56:02.597Z,100.00
2023-05-18T10:59:05.194Z,100.00
2023-05-18T11:02:08.118Z,100.00
2023-05-18T11:05:11.253Z,100.00
2023-05-18T11:08:15.116Z,100.00
2023-05-18T11:11:23.366Z,100.00
2023-05-18T11:14:27.379Z,100.00
2023-05-18T11:17:30.184Z,100.00
2023-05-18T11:20:32.404Z,100.00
2023-05-18T11:23:34.425Z,100.00
2023-05-18T11:26:39.909Z,100.00
2023-05-18T11:29:45.175Z,100.00
2023-05-18T11:32:51.558Z,100.00
2023-05-18T11:36:06.915Z,100.00
2023-05-18T11:39:08.747Z,100.00
2023-05-18T11:42:14.462Z,100.00
2023-05-18T11:45:17.467Z,100.00
2023-05-18T11:48:21.411Z,100.00
2023-05-18T11:51:26.413Z,100.00
2023-05-18T11:54:28.727Z,100.00
2023-05-18T11:57:40.446Z,100.00
2023-05-18T12:00:43.236Z,100.00
2023-05-18T12:03:48.397Z,100.00
2023-05-18T12:06:51.946Z,100.00
2023-05-18T12:09:57.761Z,100.00
2023-05-18T12:13:02.450Z,100.00
2023-05-18T12:16:05.178Z,100.00
2023-05-18T12:19:07.871Z,100.00
2023-05-18T12:22:11.162Z,100.00
2023-05-18T12:25:12.924Z,100.00
2023-05-18T12:28:17.152Z,100.00
2023-05-18T12:31:19.178Z,100.00
2023-05-18T12:34:20.981Z,100.00
2023-05-18T12:37:33.880Z,100.00
2023-05-18T12:40:46.503Z,100.00
2023-05-18T12:43:52.002Z,100.00
2023-05-18T12:46:55.445Z,100.00
2023-05-18T12:50:00.932Z,100.00
2023-05-18T12:53:02.948Z,100.00
2023-05-18T12:56:09.751Z,100.00
2023-05-18T12:59:18.128Z,100.00
2023-05-18T13:02:33.816Z,100.00
2023-05-18T13:05:35.891Z,100.00
2023-05-18T13:08:37.758Z,100.00
2023-05-18T13:11:40.137Z,100.00
2023-05-18T13:14:43.489Z,100.00
2023-05-18T13:17:50.017Z,100.00
2023-05-18T13:20:53.594Z,100.00
2023-05-18T13:23:55.432Z,100.00
2023-05-18T13:26:57.238Z,100.00
2023-05-18T13:30:00.654Z,100.00
2023-05-18T13:33:03.242Z,100.00
2023-05-18T13:36:05.366Z,100.00
2023-05-18T13:39:07.271Z,100.00
2023-05-18T13:42:09.322Z,100.00
2023-05-18T13:45:15.915Z,100.00
2023-05-18T13:48:18.212Z,100.00
2023-05-18T13:51:20.078Z,100.00
2023-05-18T13:54:22.217Z,100.00
2023-05-18T13:57:26.188Z,100.00
2023-05-18T14:00:29.433Z,100.00
2023-05-18T14:03:33.976Z,100.00
2023-05-18T14:06:36.143Z,100.00
2023-05-18T14:09:38.056Z,100.00
2023-05-18T14:12:42.465Z,100.00
2023-05-18T14:15:45.980Z,100.00
2023-05-18T14:18:47.692Z,100.00
2023-05-18T14:21:49.676Z,100.00
2023-05-18T14:24:51.610Z,100.00
2023-05-18T14:27:53.379Z,100.00
2023-05-18T14:30:56.551Z,100.00
2023-05-18T14:33:58.440Z,100.00
2023-05-18T14:37:00.216Z,100.00
2023-05-18T14:40:02.198Z,100.00
2023-05-18T14:43:04.009Z,100.00
2023-05-18T14:46:08.923Z,100.00
2023-05-18T14:49:11.113Z,100.00
2023-05-18T14:52:12.928Z,100.00
2023-05-18T14:55:15.116Z,100.00
2023-05-18T14:58:17.249Z,100.00
2023-05-18T15:01:20.608Z,100.00
2023-05-18T15:04:22.506Z,100.00
2023-05-18T15:07:24.239Z,100.00
2023-05-18T15:10:26.189Z,95.71
2023-05-18T15:13:27.874Z,89.04
2023-05-18T15:16:31.112Z,78.17
2023-05-18T15:19:33.431Z,79.44
2023-05-18T15:22:35.716Z,77.15
2023-05-18T15:25:37.869Z,73.09
2023-05-18T15:28:41.032Z,71.81
2023-05-18T15:31:44.211Z,73.77
2023-05-18T15:34:45.970Z,71.83
2023-05-18T15:37:47.756Z,68.70
2023-05-18T15:40:50.441Z,72.83
2023-05-18T15:43:52.425Z,72.27
2023-05-18T15:46:55.600Z,69.07
2023-05-18T15:49:58.098Z,71.65
2023-05-18T15:53:00.183Z,70.42
2023-05-18T15:56:02.456Z,64.78
2023-05-18T15:59:06.864Z,67.09
2023-05-18T16:02:10.165Z,70.34
2023-05-18T16:05:12.018Z,90.51
2023-05-18T16:08:13.863Z,87.72
2023-05-18T16:11:15.520Z,90.78
2023-05-18T16:14:17.214Z,70.64
2023-05-18T16:17:20.486Z,69.81
2023-05-18T16:20:22.322Z,67.58
2023-05-18T16:23:24.206Z,68.99
2023-05-18T16:26:26.325Z,87.02
2023-05-18T16:29:27.982Z,74.05
2023-05-18T16:32:31.653Z,67.91
2023-05-18T16:35:33.390Z,75.77
2023-05-18T16:38:37.316Z,74.17
2023-05-18T16:41:39.072Z,77.85
2023-05-18T16:44:41.885Z,66.90
2023-05-18T16:47:45.078Z,69.39
2023-05-18T16:50:47.163Z,71.28
2023-05-18T16:53:50.771Z,80.11
2023-05-18T16:56:52.653Z,92.45
2023-05-18T16:59:54.428Z,99.43
2023-05-18T17:02:57.553Z,95.31
2023-05-18T17:05:59.452Z,86.54
2023-05-18T17:09:01.291Z,76.50
2023-05-18T17:12:03.824Z,74.06
2023-05-18T17:15:06.461Z,77.98
2023-05-18T17:18:09.785Z,81.09
2023-05-18T17:21:11.702Z,88.00
2023-05-18T17:24:13.723Z,94.37
2023-05-18T17:27:15.684Z,91.77
2023-05-18T17:30:17.579Z,96.17
2023-05-18T17:33:20.758Z,100.00
2023-05-18T17:36:22.610Z,98.65
2023-05-18T17:39:24.865Z,100.00
2023-05-18T17:42:26.683Z,100.00
2023-05-18T17:45:28.565Z,100.00
2023-05-18T17:48:31.673Z,100.00
2023-05-18T17:51:33.533Z,100.00
2023-05-18T17:54:35.411Z,100.00
2023-05-18T17:57:46.504Z,100.00
2023-05-18T18:00:48.592Z,100.00
2023-05-18T18:03:51.863Z,100.00
2023-05-18T18:06:54.649Z,100.00
2023-05-18T18:09:56.508Z,100.00
2023-05-18T18:12:58.322Z,100.00
2023-05-18T18:16:00.058Z,100.00
2023-05-18T18:19:04.043Z,100.00
2023-05-18T18:22:06.080Z,100.00
2023-05-18T18:25:08.490Z,100.00
2023-05-18T18:28:14.601Z,100.00
2023-05-18T18:31:16.776Z,100.00
2023-05-18T18:34:19.826Z,100.00
2023-05-18T18:37:21.706Z,100.00
2023-05-18T18:40:23.673Z,100.00
2023-05-18T18:43:25.459Z,100.00
2023-05-18T18:46:27.282Z,100.00
2023-05-18T18:49:30.422Z,100.00
2023-05-18T18:52:32.613Z,100.00
2023-05-18T18:55:34.743Z,100.00
2023-05-18T18:58:36.651Z,100.00
2023-05-18T19:01:38.523Z,100.00
2023-05-18T19:04:41.785Z,100.00
2023-05-18T19:07:44.743Z,100.00
2023-05-18T19:10:46.625Z,100.00
2023-05-18T19:13:48.920Z,100.00
2023-05-18T19:16:50.825Z,100.00
2023-05-18T19:19:54.356Z,100.00
2023-05-18T19:22:56.229Z,100.00
2023-05-18T19:25:59.429Z,100.00
2023-05-18T19:29:02.954Z,100.00
2023-05-18T19:32:06.645Z,100.00
2023-05-18T19:35:09.996Z,100.00
2023-05-18T19:38:11.848Z,100.00
2023-05-18T19:41:14.467Z,100.00
2023-05-18T19:44:16.666Z,100.00
2023-05-18T19:47:18.572Z,100.00
2023-05-18T19:50:22.724Z,100.00
2023-05-18T19:53:24.656Z,100.00
2023-05-18T19:56:26.723Z,100.00
2023-05-18T19:59:29.559Z,100.00
2023-05-18T20:02:31.313Z,100.00
2023-05-18T20:05:34.754Z,100.00
2023-05-18T20:08:36.825Z,100.00
2023-05-18T20:11:39.349Z,100.00
2023-05-18T20:14:43.421Z,100.00
2023-05-18T20:17:45.522Z,100.00
2023-05-18T20:20:49.901Z,100.00
2023-05-18T20:23:51.765Z,100.00
2023-05-18T20:26:53.475Z,100.00
2023-05-18T20:29:56.231Z,100.00
2023-05-18T20:33:03.960Z,100.00
2023-05-18T20:36:09.109Z,100.00
2023-05-18T20:39:11.265Z,100.00
2023-05-18T20:42:14.749Z,100.00
2023-05-18T20:45:17.716Z,100.00
2023-05-18T20:48:26.469Z,100.00
2023-05-18T20:51:31.493Z,100.00
2023-05-18T20:54:33.403Z,100.00
2023-05-18T20:57:35.222Z,100.00
2023-05-18T21:00:37.687Z,100.00
2023-05-18T21:03:42.472Z,100.00
2023-05-18T21:06:45.827Z,100.00
2023-05-18T21:09:47.973Z,100.00
2023-05-18T21:12:51.029Z,100.00
2023-05-18T21:15:53.034Z,100.00
2023-05-18T21:18:54.940Z,100.00
2023-05-18T21:21:58.092Z,100.00
2023-05-18T21:25:00.261Z,100.00
2023-05-18T21:28:02.193Z,100.00
2023-05-18T21:31:07.483Z,100.00
2023-05-18T21:34:09.468Z,100.00
2023-05-18T21:37:12.723Z,100.00
2023-05-18T21:40:14.564Z,100.00
2023-05-18T21:43:16.302Z,100.00
2023-05-18T21:46:18.103Z,100.00
2023-05-18T21:49:20.310Z,100.00
2023-05-18T21:52:26.073Z,100.00
2023-05-18T21:55:28.520Z,100.00
2023-05-18T21:58:30.473Z,100.00
2023-05-18T22:01:32.355Z,100.00
2023-05-18T22:04:35.141Z,100.00
2023-05-18T22:07:38.532Z,100.00
2023-05-18T22:10:40.391Z,100.00
2023-05-18T22:13:43.777Z,100.00
2023-05-18T22:16:45.777Z,100.00
2023-05-18T22:19:48.374Z,100.00
2023-05-18T22:22:51.565Z,100.00
2023-05-18T22:25:53.412Z,100.00
2023-05-18T22:28:55.209Z,100.00
2023-05-18T22:31:57.041Z,100.00
2023-05-18T22:34:59.969Z,100.00
2023-05-18T22:38:03.275Z,100.00
2023-05-18T22:41:05.142Z,100.00
2023-05-18T22:44:07.207Z,100.00
2023-05-18T22:47:09.460Z,100.00
2023-05-18T22:50:11.388Z,100.00
2023-05-18T22:53:14.653Z,100.00
2023-05-18T22:56:17.279Z,100.00
2023-05-18T22:59:21.249Z,100.00
2023-05-18T23:02:23.069Z,100.00
2023-05-18T23:05:25.193Z,100.00
2023-05-18T23:08:28.483Z,100.00
2023-05-18T23:11:30.935Z,100.00
2023-05-18T23:14:33.781Z,100.00
2023-05-18T23:17:38.980Z,100.00
2023-05-18T23:20:41.942Z,100.00
2023-05-18T23:23:45.647Z,100.00
2023-05-18T23:26:47.505Z,100.00
2023-05-18T23:29:49.320Z,100.00
2023-05-18T23:32:52.875Z,100.00
2023-05-18T23:35:59.102Z,100.00
2023-05-18T23:39:02.847Z,100.00
2023-05-18T23:42:05.303Z,100.00
2023-05-18T23:45:08.779Z,100.00
2023-05-18T23:48:11.663Z,100.00
2023-05-18T23:51:21.908Z,100.00
2023-05-18T23:54:25.649Z,100.00
2023-05-18T23:57:28.275Z,100.00
